»·PEaware :: N698J YBCG-YWLM

N698J :: YBCG-YWLM

FLIGHT INFORMATION

Flight Status: Arrived
Operator: Privately registered:
United States
More flights under this callsign
Pilot: Ahmad S. (5672)
Aircraft: CANADAIR CL-600 CRJ-700
(CRJ7)
More flights by this aircraft type
Origin: YBCG Coolangatta
Australia
Destination: YWLM Williamtown Military
Australia
More flights between these airports :: More routes between these airports
Route: CG W549 LIS H185
File this flight plan on PilotEdge
Remarks:
Altitude:
(Current/Filed)
260ft
Speed:
(Current/Filed)
450kts
Departed: 25-Jun-15 10:42 AM
Arrived: 25-Jun-15 11:46 AM
Distance/Time
Traveled:
291nm/1:04
Distance/Time
To Go:
Arrived

Flight Plot

Page will automatically refresh every two minutes.


Map Options




Map Legend


Flown Route
Filed Route
Departure Airport
Arrival Airport
Navaid (VOR, NDB)
Fix

Horizontal Profiles

Position Reports

Time Latitude Longitude Heading Altitude Ground
Speed
25-Jun-15 10:29 -28.164571 153.510715 99 28ft 0kts
25-Jun-15 10:30 -28.164571 153.510715 99 28ft 0kts
25-Jun-15 10:31 -28.164571 153.510715 99 28ft 0kts
25-Jun-15 10:32 -28.164571 153.510715 99 28ft 0kts
25-Jun-15 10:33 -28.164571 153.510715 99 28ft 0kts
25-Jun-15 10:34 -28.164571 153.510715 99 28ft 0kts
25-Jun-15 10:35 -28.164526 153.510413 99 28ft 2kts
25-Jun-15 10:36 -28.164551 153.510530 105 28ft 4kts
25-Jun-15 10:37 -28.164816 153.510174 321 28ft 5kts
25-Jun-15 10:38 -28.164342 153.507738 330 28ft 14kts
25-Jun-15 10:39 -28.157824 153.503556 330 28ft 37kts
25-Jun-15 10:40 -28.156531 153.501036 238 28ft 7kts
25-Jun-15 10:41 -28.165338 153.506396 150 28ft 145kts
25-Jun-15 10:42 -28.214065 153.537046 152 1262ft 188kts
25-Jun-15 10:43 -28.262624 153.563763 173 3120ft 205kts
25-Jun-15 10:44 -28.309658 153.521008 208 5026ft 229kts
25-Jun-15 10:45 -28.365514 153.485030 204 7186ft 233kts
25-Jun-15 10:46 -28.422503 153.449468 204 9376ft 230kts
25-Jun-15 10:47 -28.479949 153.414247 204 11380ft 257kts
25-Jun-15 10:48 -28.553373 153.372988 200 13278ft 329kts
25-Jun-15 10:49 -28.646650 153.334383 197 15189ft 380kts
25-Jun-15 10:50 -28.750915 153.293652 197 17222ft 408kts
25-Jun-15 10:51 -28.859822 153.252087 197 19572ft 413kts
25-Jun-15 10:52 -28.969945 153.212261 196 22066ft 418kts
25-Jun-15 10:53 -29.081898 153.174083 195 24571ft 419kts
25-Jun-15 10:54 -29.193397 153.137254 195 27064ft 415kts
25-Jun-15 10:55 -29.303745 153.101625 196 29402ft 409kts
25-Jun-15 10:56 -29.412165 153.062480 198 31405ft 405kts
25-Jun-15 10:57 -29.519701 153.023992 200 33038ft 407kts
25-Jun-15 10:58 -29.628329 152.985330 200 34538ft 408kts
25-Jun-15 10:59 -29.736411 152.946135 201 36036ft 405kts
25-Jun-15 11:00 -29.846953 152.906094 200 36321ft 430kts
25-Jun-15 11:01 -29.965189 152.864860 200 36324ft 452kts
25-Jun-15 11:02 -30.046927 152.836217 198 36329ft 459kts
25-Jun-15 11:03 -30.167684 152.790611 198 36336ft 452kts
25-Jun-15 11:04 -30.287139 152.747488 197 36340ft 446kts
25-Jun-15 11:05 -30.403624 152.705641 197 36352ft 444kts
25-Jun-15 11:17 -31.737024 152.229576 194 22994ft 365kts
25-Jun-15 11:18 -31.833952 152.197827 195 20790ft 357kts
25-Jun-15 11:19 -31.928525 152.164799 196 18583ft 350kts
25-Jun-15 11:20 -32.020898 152.132266 196 16406ft 341kts
25-Jun-15 11:21 -32.110445 152.099014 196 14199ft 334kts
25-Jun-15 11:22 -32.198898 152.067222 197 11999ft 330kts
25-Jun-15 11:23 -32.283445 152.035869 197 10486ft 297kts
25-Jun-15 11:24 -32.357664 152.007264 197 8915ft 266kts
25-Jun-15 11:25 -32.426263 151.980415 196 7389ft 252kts
25-Jun-15 11:26 -32.489797 151.950826 215 6076ft 238kts
25-Jun-15 11:27 -32.535813 151.896252 222 4863ft 237kts
25-Jun-15 11:28 -32.568106 151.845638 232 4018ft 229kts
25-Jun-15 11:37 -32.581346 151.800977 260 4000ft 208kts
25-Jun-15 11:38 -32.584482 151.734279 262 4008ft 201kts
25-Jun-15 11:39 -32.612589 151.686120 194 3190ft 205kts
25-Jun-15 11:40 -32.667027 151.669987 174 2446ft 174kts
25-Jun-15 11:41 -32.701976 151.702390 130 2515ft 162kts
25-Jun-15 11:42 -32.730628 151.743933 133 1836ft 149kts
25-Jun-15 11:43 -32.756729 151.780180 133 1019ft 144kts
25-Jun-15 11:44 -32.782834 151.816343 130 276ft 143kts
25-Jun-15 11:45 -32.797909 151.837659 120 38ft 16kts
25-Jun-15 11:46 -32.797834 151.840200 126 38ft 8kts
25-Jun-15 11:47 -32.796621 151.843203 61 38ft 11kts
25-Jun-15 11:48 -32.796366 151.843674 53 38ft 0kts
25-Jun-15 11:49 -32.796366 151.843674 53 38ft 0kts
25-Jun-15 11:50 -32.796366 151.843674 53 38ft 0kts

Navigation Log

Ident Type
Flight plan parsing failed, navigation log unavailable